Herbine, Arkansas
Current Conditions -  °F | °C
As of 4:53 PM on Sunday 21 Dec 2014 (Local Time) from KPBF Reporting Station
Few Clouds Few Clouds  
Wind Chill: 50°   Ceiling: Unl
Heat Index: 50°   Visibility: 10mi
Dew Point: 38°   Wind: 9mph
Humidity: 63%   Direction: 110°ESE
Pressure: 29.97"   Gusts: NA
Location:  33.947°N, 92.1633°W
Report Text: KPBF 212253Z AUTO 11008KT 10SM FEW090 10/03 A2997 RMK AO2 SLP150 T01000033
Loading
Personal Weather Stations






























Interactive Weather Map New forecast layout! Learn more

10-Day Weather Forecast

Advertisements
Track Severe Weather on mobile